createdAt,value
2022-09-26T00:01:45.874Z,2.40
2022-09-26T00:04:32.370Z,2.22
2022-09-26T00:07:02.404Z,1.95
2022-09-26T00:09:31.315Z,2.00
2022-09-26T00:12:00.257Z,2.50
2022-09-26T00:14:30.759Z,2.17
2022-09-26T00:16:59.971Z,2.40
2022-09-26T00:19:28.655Z,2.10
2022-09-26T00:21:57.699Z,2.33
2022-09-26T00:24:26.363Z,2.15
2022-09-26T00:26:55.410Z,2.67
2022-09-26T00:29:24.269Z,2.63
2022-09-26T00:31:53.403Z,2.70
2022-09-26T00:34:22.200Z,2.73
2022-09-26T00:36:51.359Z,2.55
2022-09-26T00:39:20.261Z,3.10
2022-09-26T00:41:49.094Z,3.10
2022-09-26T00:44:57.671Z,3.33
2022-09-26T00:48:00.453Z,3.67
2022-09-26T00:50:36.999Z,14.23
2022-09-26T00:53:18.114Z,6.35
2022-09-26T00:55:53.905Z,8.77
2022-09-26T00:58:30.800Z,6.60
2022-09-26T01:01:01.875Z,7.90
2022-09-26T01:03:33.764Z,5.85
2022-09-26T01:06:03.148Z,6.32
2022-09-26T01:08:40.656Z,4.20
2022-09-26T01:11:14.809Z,4.07
2022-09-26T01:13:46.660Z,3.40
2022-09-26T01:16:15.566Z,5.80
2022-09-26T01:18:45.606Z,8.23
2022-09-26T01:21:38.640Z,9.18
2022-09-26T01:24:22.646Z,4.95
2022-09-26T01:27:31.060Z,4.90
2022-09-26T01:30:28.093Z,4.10
2022-09-26T01:33:12.037Z,3.80
2022-09-26T01:36:07.516Z,3.22
2022-09-26T01:39:02.982Z,3.67
2022-09-26T01:41:57.755Z,3.45
2022-09-26T01:44:54.379Z,2.90
2022-09-26T01:47:42.036Z,2.63
2022-09-26T01:50:30.023Z,2.80
2022-09-26T01:53:22.982Z,3.40
2022-09-26T01:56:05.067Z,4.25
2022-09-26T01:58:52.785Z,3.28
2022-09-26T02:01:26.969Z,3.80
2022-09-26T02:04:02.463Z,4.40
2022-09-26T02:06:57.437Z,3.10
2022-09-26T02:09:41.654Z,2.60
2022-09-26T02:12:19.500Z,3.22
2022-09-26T02:14:52.097Z,3.80
2022-09-26T02:17:27.956Z,3.65
2022-09-26T02:20:20.495Z,3.63
2022-09-26T02:22:49.454Z,3.90
2022-09-26T02:25:18.508Z,3.95
2022-09-26T02:27:47.335Z,3.88
2022-09-26T02:30:16.419Z,3.40
2022-09-26T02:32:46.033Z,3.33
2022-09-26T02:35:35.619Z,3.10
2022-09-26T02:38:06.515Z,3.55
2022-09-26T02:40:52.897Z,3.50
2022-09-26T02:43:36.572Z,3.47
2022-09-26T02:46:08.775Z,3.53
2022-09-26T02:48:47.350Z,3.40
2022-09-26T02:51:22.495Z,3.50
2022-09-26T02:54:15.645Z,3.75
2022-09-26T02:57:32.668Z,5.55
2022-09-26T03:00:18.798Z,3.80
2022-09-26T03:03:00.208Z,3.27
2022-09-26T03:05:31.868Z,3.42
2022-09-26T03:08:10.692Z,3.33
2022-09-26T03:10:43.077Z,4.28
2022-09-26T03:13:15.403Z,3.80
2022-09-26T03:15:49.949Z,3.45
2022-09-26T03:18:25.630Z,3.50
2022-09-26T03:20:57.477Z,3.00
2022-09-26T03:23:28.539Z,3.05
2022-09-26T03:26:14.773Z,3.50
2022-09-26T03:28:55.133Z,3.47
2022-09-26T03:31:26.400Z,3.80
2022-09-26T03:34:03.424Z,4.25
2022-09-26T03:36:33.115Z,4.18
2022-09-26T03:39:03.929Z,3.37
2022-09-26T03:41:53.881Z,3.25
2022-09-26T03:44:28.045Z,3.60
2022-09-26T03:47:06.486Z,4.38
2022-09-26T03:49:42.499Z,3.80
2022-09-26T03:52:14.439Z,3.67
2022-09-26T03:54:45.824Z,3.38
2022-09-26T03:57:18.553Z,3.53
2022-09-26T04:00:11.301Z,3.20
2022-09-26T04:02:47.442Z,3.20
2022-09-26T04:05:32.834Z,3.30
2022-09-26T04:08:05.876Z,3.57
2022-09-26T04:10:36.117Z,3.60
2022-09-26T04:13:07.175Z,3.60
2022-09-26T04:15:36.601Z,3.70
2022-09-26T04:18:09.338Z,3.40
2022-09-26T04:20:38.834Z,3.50
2022-09-26T04:23:07.863Z,3.50
2022-09-26T04:25:38.969Z,3.97
2022-09-26T04:28:08.118Z,3.92
2022-09-26T04:30:38.675Z,3.80
2022-09-26T04:33:08.163Z,3.72
2022-09-26T04:36:05.802Z,3.77
2022-09-26T04:38:35.132Z,4.07
2022-09-26T04:41:10.272Z,3.47
2022-09-26T04:43:39.924Z,3.97
2022-09-26T04:46:21.680Z,3.60
2022-09-26T04:48:54.864Z,9.35
2022-09-26T04:51:26.100Z,8.38
2022-09-26T04:53:55.153Z,4.20
2022-09-26T04:56:30.493Z,4.53
2022-09-26T04:59:01.380Z,3.63
2022-09-26T05:01:39.783Z,3.80
2022-09-26T05:04:13.902Z,4.10
2022-09-26T05:06:43.990Z,3.83
2022-09-26T05:09:23.627Z,4.20
2022-09-26T05:11:57.521Z,5.00
2022-09-26T05:14:26.452Z,4.30
2022-09-26T05:16:55.186Z,4.32
2022-09-26T05:19:24.364Z,4.90
2022-09-26T05:22:16.424Z,5.05
2022-09-26T05:25:03.714Z,4.85
2022-09-26T05:27:32.542Z,4.57
2022-09-26T05:30:01.846Z,5.63
2022-09-26T05:32:30.872Z,4.90
2022-09-26T05:35:00.052Z,5.13
2022-09-26T05:37:32.274Z,5.20
2022-09-26T05:40:20.873Z,5.03
2022-09-26T05:42:53.083Z,5.82
2022-09-26T05:45:23.781Z,4.90
2022-09-26T05:47:54.134Z,5.15
2022-09-26T05:50:26.021Z,5.00
2022-09-26T05:52:59.715Z,4.68
2022-09-26T05:55:30.306Z,4.40
2022-09-26T05:58:24.860Z,5.03
2022-09-26T06:01:22.764Z,4.50
2022-09-26T06:04:03.648Z,4.70
2022-09-26T06:06:38.213Z,4.80
2022-09-26T06:09:13.170Z,4.80
2022-09-26T06:11:57.292Z,5.03
2022-09-26T06:14:27.357Z,11.68
2022-09-26T06:16:56.012Z,10.70
2022-09-26T06:19:25.353Z,13.77
2022-09-26T06:21:54.571Z,30.50
2022-09-26T06:24:23.795Z,12.73
2022-09-26T06:26:56.682Z,55.28
2022-09-26T06:29:26.354Z,51.53
2022-09-26T06:31:55.463Z,25.42
2022-09-26T06:34:27.815Z,7.60
2022-09-26T06:37:08.683Z,6.07
2022-09-26T06:39:37.888Z,31.25
2022-09-26T06:42:08.433Z,7.30
2022-09-26T06:44:51.486Z,16.00
2022-09-26T06:47:26.433Z,7.15
2022-09-26T06:50:12.222Z,6.90
2022-09-26T06:52:44.967Z,7.13
2022-09-26T06:55:16.115Z,4.93
2022-09-26T06:57:45.942Z,7.03
2022-09-26T07:00:16.883Z,5.72
2022-09-26T07:03:21.518Z,6.78
2022-09-26T07:05:59.808Z,18.00
2022-09-26T07:08:57.304Z,16.43
2022-09-26T07:11:50.917Z,7.72
2022-09-26T07:14:09.289Z,5.53
2022-09-26T07:16:38.484Z,5.63
2022-09-26T07:19:33.343Z,6.20
2022-09-26T07:22:09.700Z,5.97
2022-09-26T07:24:51.085Z,5.35
2022-09-26T07:27:20.395Z,8.00
2022-09-26T07:29:49.689Z,6.60
2022-09-26T07:32:21.523Z,15.13
2022-09-26T07:35:15.046Z,24.88
2022-09-26T07:37:44.539Z,13.30
2022-09-26T07:40:13.745Z,9.07
2022-09-26T07:42:47.761Z,5.90
2022-09-26T07:45:45.893Z,7.38
2022-09-26T07:48:33.717Z,12.47
2022-09-26T07:51:21.729Z,6.30
2022-09-26T07:53:51.875Z,6.63
2022-09-26T07:56:49.833Z,5.90
2022-09-26T07:59:41.547Z,5.25
2022-09-26T08:02:23.793Z,5.30
2022-09-26T08:05:00.804Z,5.30
2022-09-26T08:07:32.724Z,6.30
2022-09-26T08:10:30.660Z,5.93
2022-09-26T08:13:21.962Z,7.32
2022-09-26T08:16:26.114Z,9.80
2022-09-26T08:19:00.193Z,6.85
2022-09-26T08:21:30.141Z,7.65
2022-09-26T08:24:00.959Z,6.15
2022-09-26T08:26:48.134Z,10.90
2022-09-26T08:29:25.035Z,9.40
2022-09-26T08:31:55.991Z,6.10
2022-09-26T08:34:26.502Z,12.05
2022-09-26T08:37:15.892Z,14.07
2022-09-26T08:40:05.282Z,14.23
2022-09-26T08:43:35.437Z,7.47
2022-09-26T08:46:47.966Z,6.70
2022-09-26T08:49:53.931Z,12.63
2022-09-26T08:52:36.856Z,32.35
2022-09-26T08:55:17.381Z,14.00
2022-09-26T08:57:53.602Z,10.47
2022-09-26T09:00:25.232Z,14.82
2022-09-26T09:03:22.448Z,5.88
2022-09-26T09:06:03.527Z,5.57
2022-09-26T09:08:50.538Z,23.13
2022-09-26T09:11:29.314Z,11.00
2022-09-26T09:14:40.652Z,18.60
2022-09-26T09:18:21.431Z,10.95
2022-09-26T09:21:31.513Z,8.80
2022-09-26T09:24:46.967Z,11.48
2022-09-26T09:27:53.447Z,10.33
2022-09-26T09:30:32.204Z,18.95
2022-09-26T09:33:38.161Z,6.30
2022-09-26T09:36:44.017Z,7.22
2022-09-26T09:39:51.568Z,5.80
2022-09-26T09:42:44.269Z,20.40
2022-09-26T09:45:25.006Z,13.02
2022-09-26T09:47:54.011Z,8.57
2022-09-26T09:50:49.078Z,11.63
2022-09-26T09:53:33.724Z,10.32
2022-09-26T09:56:17.265Z,15.50
2022-09-26T09:59:04.762Z,8.65
2022-09-26T10:01:52.155Z,6.97
2022-09-26T10:04:40.839Z,8.05
2022-09-26T10:07:10.015Z,6.55
2022-09-26T10:09:42.554Z,6.55
2022-09-26T10:12:32.082Z,10.13
2022-09-26T10:15:37.224Z,6.35
2022-09-26T10:18:25.658Z,6.77
2022-09-26T10:21:20.530Z,9.95
2022-09-26T10:23:51.818Z,7.90
2022-09-26T10:26:36.114Z,9.38
2022-09-26T10:29:24.448Z,6.28
2022-09-26T10:32:01.185Z,9.63
2022-09-26T10:34:36.740Z,8.18
2022-09-26T10:37:30.349Z,8.20
2022-09-26T10:40:44.770Z,8.07
2022-09-26T10:43:22.979Z,8.13
2022-09-26T10:46:06.057Z,7.30
2022-09-26T10:48:54.602Z,10.15
2022-09-26T10:51:51.782Z,7.97
2022-09-26T10:54:25.847Z,11.63
2022-09-26T10:57:00.247Z,10.68
2022-09-26T10:59:35.500Z,12.48
2022-09-26T11:02:06.557Z,10.35
2022-09-26T11:04:54.862Z,10.52
2022-09-26T11:07:58.913Z,9.85
2022-09-26T11:10:43.158Z,12.02
2022-09-26T11:13:40.374Z,12.68
2022-09-26T11:16:15.618Z,10.98
2022-09-26T11:18:55.925Z,10.55
2022-09-26T11:21:43.994Z,12.50
2022-09-26T11:24:46.900Z,12.17
2022-09-26T11:27:25.984Z,11.35
2022-09-26T11:30:13.585Z,10.43
2022-09-26T11:32:53.372Z,10.85
2022-09-26T11:36:19.023Z,14.18
2022-09-26T11:38:56.851Z,12.50
2022-09-26T11:41:56.937Z,17.58
2022-09-26T11:44:49.235Z,17.60
2022-09-26T11:47:42.005Z,15.55
2022-09-26T11:50:43.894Z,14.80
2022-09-26T11:53:35.166Z,17.47
2022-09-26T11:56:35.597Z,28.40
2022-09-26T11:59:22.468Z,26.33
2022-09-26T12:02:00.129Z,32.15
2022-09-26T12:04:53.120Z,21.95
2022-09-26T12:08:00.048Z,25.90
2022-09-26T12:10:47.210Z,45.47
2022-09-26T12:13:55.120Z,45.40
2022-09-26T12:16:33.739Z,37.33
2022-09-26T12:19:43.914Z,35.42
2022-09-26T12:22:31.011Z,42.97
2022-09-26T12:25:25.480Z,32.17
2022-09-26T12:28:09.463Z,43.03
2022-09-26T12:30:49.079Z,29.65
2022-09-26T12:34:07.016Z,27.20
2022-09-26T12:37:07.725Z,28.10
2022-09-26T12:40:08.070Z,25.27
2022-09-26T12:43:07.550Z,29.73
2022-09-26T12:45:39.060Z,29.38
2022-09-26T12:48:15.948Z,31.48
2022-09-26T12:50:48.554Z,47.80
2022-09-26T12:53:56.032Z,42.17
2022-09-26T12:56:48.187Z,35.55
2022-09-26T12:59:37.807Z,57.37
2022-09-26T13:02:47.248Z,66.13
2022-09-26T13:05:16.456Z,36.72
2022-09-26T13:08:20.149Z,85.32
2022-09-26T13:10:59.523Z,78.90
2022-09-26T13:13:58.817Z,53.72
2022-09-26T13:17:06.824Z,60.70
2022-09-26T13:20:00.187Z,25.17
2022-09-26T13:22:49.767Z,41.05
2022-09-26T13:25:30.328Z,42.38
2022-09-26T13:28:10.586Z,32.92
2022-09-26T13:30:44.051Z,46.88
2022-09-26T13:33:21.643Z,49.63
2022-09-26T13:35:56.740Z,35.55
2022-09-26T13:38:47.159Z,37.75
2022-09-26T13:42:02.925Z,37.70
2022-09-26T13:45:25.552Z,41.07
2022-09-26T13:48:11.654Z,34.20
2022-09-26T13:50:55.668Z,32.30
2022-09-26T13:53:41.037Z,34.00
2022-09-26T13:56:31.383Z,30.83
2022-09-26T13:59:12.197Z,32.45
2022-09-26T14:02:17.822Z,33.72
2022-09-26T14:04:49.106Z,29.55
2022-09-26T14:08:01.984Z,26.30
2022-09-26T14:10:38.955Z,26.95
2022-09-26T14:13:32.835Z,30.87
2022-09-26T14:16:04.531Z,30.53
2022-09-26T14:18:48.432Z,23.87
2022-09-26T14:21:35.255Z,22.77
2022-09-26T14:24:22.247Z,20.98
2022-09-26T14:27:26.961Z,14.32
2022-09-26T14:30:15.874Z,10.88
2022-09-26T14:32:47.988Z,10.13
2022-09-26T14:35:29.790Z,9.90
2022-09-26T14:38:24.153Z,10.10
2022-09-26T14:40:57.307Z,10.57
2022-09-26T14:43:30.953Z,10.00
2022-09-26T14:46:19.004Z,10.00
2022-09-26T14:48:58.776Z,10.40
2022-09-26T14:51:34.834Z,10.93
2022-09-26T14:57:22.905Z,11.48
2022-09-26T14:59:52.475Z,11.30
2022-09-26T15:02:42.337Z,11.40
2022-09-26T15:05:19.985Z,10.88
2022-09-26T15:07:54.827Z,11.82
2022-09-26T15:10:25.848Z,11.27
2022-09-26T15:13:00.995Z,11.85
2022-09-26T15:15:39.451Z,11.40
2022-09-26T15:18:36.609Z,11.05
2022-09-26T15:21:28.763Z,11.63
2022-09-26T15:23:58.706Z,12.68
2022-09-26T15:26:38.919Z,12.20
2022-09-26T15:29:12.345Z,12.23
2022-09-26T15:31:45.085Z,12.63
2022-09-26T15:34:38.153Z,12.57
2022-09-26T15:37:20.535Z,12.07
2022-09-26T15:39:50.233Z,25.70
2022-09-26T15:42:39.386Z,23.53
2022-09-26T15:45:28.840Z,13.95
2022-09-26T15:48:01.463Z,14.80
2022-09-26T15:54:08.356Z,15.85
2022-09-26T15:56:42.117Z,11.98
2022-09-26T15:59:24.045Z,11.68
2022-09-26T16:01:55.451Z,11.73
2022-09-26T16:04:32.098Z,12.07
2022-09-26T16:07:02.724Z,13.60
2022-09-26T16:09:49.673Z,14.20
2022-09-26T16:12:22.315Z,9.50
2022-09-26T16:14:53.434Z,9.63
2022-09-26T16:17:38.696Z,8.95
2022-09-26T16:20:11.881Z,9.18
2022-09-26T16:22:48.194Z,8.18
2022-09-26T16:25:17.141Z,9.40
2022-09-26T16:27:47.629Z,9.30
2022-09-26T16:30:28.336Z,10.45
2022-09-26T16:33:06.546Z,11.50
2022-09-26T16:35:40.706Z,11.68
2022-09-26T16:38:24.788Z,11.88
2022-09-26T16:40:59.993Z,13.00
2022-09-26T16:43:32.515Z,12.83
2022-09-26T16:46:20.058Z,13.32
2022-09-26T16:48:51.966Z,13.15
2022-09-26T16:51:26.582Z,13.82
2022-09-26T16:54:11.600Z,13.75
2022-09-26T16:56:42.533Z,14.20
2022-09-26T16:59:29.635Z,14.20
2022-09-26T17:02:03.469Z,14.20
2022-09-26T17:04:35.388Z,12.68
2022-09-26T17:07:16.117Z,11.77
2022-09-26T17:09:45.295Z,10.73
2022-09-26T17:12:13.888Z,11.15
2022-09-26T17:14:43.810Z,10.85
2022-09-26T17:17:22.545Z,10.70
2022-09-26T17:19:58.912Z,11.45
2022-09-26T17:22:29.333Z,11.32
2022-09-26T17:24:59.357Z,8.98
2022-09-26T17:27:33.487Z,14.13
2022-09-26T17:30:06.990Z,11.88
2022-09-26T17:32:40.795Z,12.75
2022-09-26T17:35:23.141Z,15.20
2022-09-26T17:37:52.524Z,13.82
2022-09-26T17:40:24.892Z,16.00
2022-09-26T17:42:57.566Z,12.23
2022-09-26T17:45:29.653Z,12.33
2022-09-26T17:48:29.446Z,11.13
2022-09-26T17:51:04.079Z,19.02
2022-09-26T17:53:46.154Z,11.45
2022-09-26T17:56:17.853Z,16.90
2022-09-26T17:58:48.072Z,21.08
2022-09-26T18:01:31.357Z,25.92
2022-09-26T18:04:07.186Z,13.90
2022-09-26T18:06:37.819Z,16.65
2022-09-26T18:09:10.789Z,17.48
2022-09-26T18:11:42.619Z,17.95
2022-09-26T18:14:18.397Z,18.37
2022-09-26T18:16:47.576Z,14.57
2022-09-26T18:19:16.313Z,18.90
2022-09-26T18:21:45.396Z,15.27
2022-09-26T18:24:19.831Z,11.85
2022-09-26T18:26:51.793Z,11.50
2022-09-26T18:29:36.920Z,10.50
2022-09-26T18:32:13.156Z,19.30
2022-09-26T18:34:42.117Z,19.35
2022-09-26T18:37:10.934Z,19.60
2022-09-26T18:39:39.774Z,14.90
2022-09-26T18:42:12.085Z,15.15
2022-09-26T18:44:41.795Z,14.90
2022-09-26T18:47:18.500Z,19.02
2022-09-26T18:49:48.303Z,30.90
2022-09-26T18:52:19.543Z,9.40
2022-09-26T18:55:08.781Z,6.85
2022-09-26T18:57:58.977Z,5.63
2022-09-26T19:00:28.775Z,6.15
2022-09-26T19:02:58.730Z,10.27
2022-09-26T19:05:27.877Z,92.28
2022-09-26T19:07:58.274Z,15.63
2022-09-26T19:10:27.954Z,27.63
2022-09-26T19:12:56.958Z,12.05
2022-09-26T19:15:26.355Z,16.85
2022-09-26T19:17:55.554Z,27.85
2022-09-26T19:20:24.824Z,25.15
2022-09-26T19:22:56.674Z,10.13
2022-09-26T19:25:26.593Z,6.25
2022-09-26T19:27:55.534Z,6.30
2022-09-26T19:30:25.675Z,6.23
2022-09-26T19:32:57.065Z,27.00
2022-09-26T19:35:32.966Z,36.97
2022-09-26T19:38:03.765Z,23.75
2022-09-26T19:40:33.075Z,13.05
2022-09-26T19:43:01.785Z,6.75
2022-09-26T19:45:32.440Z,6.68
2022-09-26T19:48:01.636Z,6.75
2022-09-26T19:50:33.604Z,6.50
2022-09-26T19:53:05.433Z,6.55
2022-09-26T19:55:34.379Z,6.33
2022-09-26T19:58:16.134Z,6.50
2022-09-26T20:00:46.076Z,6.28
2022-09-26T20:03:26.279Z,6.40
2022-09-26T20:05:55.727Z,6.37
2022-09-26T20:08:26.663Z,6.07
2022-09-26T20:10:59.133Z,6.22
2022-09-26T20:13:28.040Z,6.75
2022-09-26T20:15:57.638Z,5.80
2022-09-26T20:18:26.742Z,8.18
2022-09-26T20:20:58.249Z,7.45
2022-09-26T20:23:28.340Z,7.53
2022-09-26T20:25:57.620Z,7.63
2022-09-26T20:28:26.366Z,8.05
2022-09-26T20:30:59.311Z,8.27
2022-09-26T20:33:29.800Z,8.20
2022-09-26T20:36:07.597Z,7.72
2022-09-26T20:38:46.964Z,7.82
2022-09-26T20:41:32.955Z,7.40
2022-09-26T20:44:06.775Z,7.30
2022-09-26T20:46:40.151Z,7.30
2022-09-26T20:49:17.180Z,7.90
2022-09-26T20:51:47.064Z,7.03
2022-09-26T20:54:26.274Z,7.40
2022-09-26T20:56:57.005Z,6.70
2022-09-26T20:59:27.602Z,7.63
2022-09-26T21:01:58.668Z,8.35
2022-09-26T21:04:32.894Z,7.67
2022-09-26T21:07:01.895Z,7.70
2022-09-26T21:09:30.583Z,7.72
2022-09-26T21:11:59.581Z,7.53
2022-09-26T21:14:28.240Z,8.32
2022-09-26T21:16:57.368Z,7.40
2022-09-26T21:19:28.902Z,7.00
2022-09-26T21:22:13.246Z,7.13
2022-09-26T21:24:50.000Z,47.75
2022-09-26T21:27:18.974Z,25.70
2022-09-26T21:29:47.944Z,18.13
2022-09-26T21:32:22.203Z,11.95
2022-09-26T21:35:03.713Z,7.90
2022-09-26T21:37:33.161Z,90.22
2022-09-26T21:40:03.170Z,18.73
2022-09-26T21:42:32.156Z,19.38
2022-09-26T21:45:04.938Z,28.95
2022-09-26T21:47:34.178Z,11.15
2022-09-26T21:50:03.638Z,44.17
2022-09-26T21:52:47.413Z,10.32
2022-09-26T21:55:23.724Z,16.83
2022-09-26T21:57:54.889Z,9.60
2022-09-26T22:00:23.811Z,8.95
2022-09-26T22:02:52.635Z,21.33
2022-09-26T22:05:23.138Z,17.10
2022-09-26T22:07:52.147Z,7.20
2022-09-26T22:10:20.854Z,7.07
2022-09-26T22:12:50.022Z,6.23
2022-09-26T22:15:19.094Z,12.98
2022-09-26T22:17:49.259Z,20.15
2022-09-26T22:20:18.099Z,11.45
2022-09-26T22:22:46.956Z,18.73
2022-09-26T22:25:16.076Z,7.70
2022-09-26T22:27:44.918Z,7.35
2022-09-26T22:30:14.425Z,8.43
2022-09-26T22:32:43.382Z,10.38
2022-09-26T22:35:12.651Z,22.52
2022-09-26T22:37:42.029Z,20.50
2022-09-26T22:40:11.296Z,23.38
2022-09-26T22:42:40.099Z,17.33
2022-09-26T22:45:09.631Z,21.20
2022-09-26T22:47:39.092Z,26.10
2022-09-26T22:50:08.387Z,16.17
2022-09-26T22:52:37.402Z,25.97
2022-09-26T22:55:06.811Z,21.58
2022-09-26T22:57:35.512Z,14.95
2022-09-26T23:00:05.883Z,16.30
2022-09-26T23:02:35.205Z,11.45
2022-09-26T23:05:03.892Z,10.90
2022-09-26T23:07:33.160Z,9.32
2022-09-26T23:10:02.054Z,8.25
2022-09-26T23:12:32.635Z,7.72
2022-09-26T23:15:01.661Z,7.10
2022-09-26T23:17:30.490Z,8.48
2022-09-26T23:20:02.184Z,7.60
2022-09-26T23:22:31.163Z,7.40
2022-09-26T23:25:00.646Z,7.20
2022-09-26T23:27:30.020Z,6.75
2022-09-26T23:29:58.702Z,7.68
2022-09-26T23:32:27.619Z,8.20
2022-09-26T23:34:56.342Z,7.82
2022-09-26T23:37:25.340Z,7.93
2022-09-26T23:39:54.213Z,8.27
2022-09-26T23:42:23.150Z,8.63
2022-09-26T23:44:51.819Z,8.35
2022-09-26T23:47:20.679Z,8.82
2022-09-26T23:49:49.378Z,9.07
2022-09-26T23:52:18.441Z,8.05
2022-09-26T23:54:47.132Z,8.70
2022-09-26T23:57:16.023Z,9.70
2022-09-26T23:59:44.708Z,8.55
